createdAt,value
2022-10-06T00:00:07.921Z,100.00
2022-10-06T00:02:39.857Z,100.00
2022-10-06T00:05:11.370Z,100.00
2022-10-06T00:07:43.160Z,100.00
2022-10-06T00:10:14.621Z,100.00
2022-10-06T00:12:46.414Z,100.00
2022-10-06T00:15:17.939Z,100.00
2022-10-06T00:17:49.428Z,100.00
2022-10-06T00:20:20.896Z,100.00
2022-10-06T00:22:52.676Z,100.00
2022-10-06T00:25:24.125Z,100.00
2022-10-06T00:27:55.886Z,100.00
2022-10-06T00:30:27.436Z,100.00
2022-10-06T00:32:59.352Z,100.00
2022-10-06T00:35:32.434Z,100.00
2022-10-06T00:38:04.240Z,100.00
2022-10-06T00:40:35.704Z,100.00
2022-10-06T00:43:07.479Z,100.00
2022-10-06T00:45:38.951Z,100.00
2022-10-06T00:48:11.994Z,100.00
2022-10-06T00:50:43.497Z,100.00
2022-10-06T00:53:15.301Z,100.00
2022-10-06T00:55:47.140Z,100.00
2022-10-06T00:58:19.094Z,100.00
2022-10-06T01:00:50.856Z,100.00
2022-10-06T01:03:22.320Z,100.00
2022-10-06T01:05:54.151Z,100.00
2022-10-06T01:08:26.065Z,100.00
2022-10-06T01:10:58.396Z,100.00
2022-10-06T01:13:30.150Z,100.00
2022-10-06T01:16:02.004Z,100.00
2022-10-06T01:18:33.745Z,100.00
2022-10-06T01:21:05.689Z,100.00
2022-10-06T01:23:37.224Z,100.00
2022-10-06T01:26:09.145Z,100.00
2022-10-06T01:28:40.705Z,100.00
2022-10-06T01:31:12.712Z,100.00
2022-10-06T01:33:44.279Z,100.00
2022-10-06T01:36:16.070Z,100.00
2022-10-06T01:38:47.555Z,100.00
2022-10-06T01:41:19.953Z,100.00
2022-10-06T01:43:51.437Z,100.00
2022-10-06T01:46:23.474Z,100.00
2022-10-06T01:48:55.500Z,100.00
2022-10-06T01:51:27.258Z,100.00
2022-10-06T01:53:58.708Z,100.00
2022-10-06T01:56:30.470Z,100.00
2022-10-06T01:59:01.953Z,100.00
2022-10-06T02:01:34.072Z,100.00
2022-10-06T02:04:05.620Z,100.00
2022-10-06T02:06:37.469Z,100.00
2022-10-06T02:09:09.064Z,100.00
2022-10-06T02:11:41.235Z,100.00
2022-10-06T02:14:13.178Z,100.00
2022-10-06T02:16:44.965Z,100.00
2022-10-06T02:19:16.465Z,100.00
2022-10-06T02:21:48.442Z,100.00
2022-10-06T02:24:20.091Z,100.00
2022-10-06T02:26:51.980Z,100.00
2022-10-06T02:29:23.464Z,100.00
2022-10-06T02:31:56.067Z,100.00
2022-10-06T02:34:27.522Z,100.00
2022-10-06T02:36:59.296Z,100.00
2022-10-06T02:39:30.817Z,100.00
2022-10-06T02:42:02.596Z,100.00
2022-10-06T02:44:34.136Z,100.00
2022-10-06T02:47:05.808Z,100.00
2022-10-06T02:49:37.311Z,100.00
2022-10-06T02:52:09.099Z,100.00
2022-10-06T02:54:40.587Z,100.00
2022-10-06T02:57:12.497Z,100.00
2022-10-06T02:59:43.980Z,100.00
2022-10-06T03:02:15.901Z,100.00
2022-10-06T03:04:47.444Z,100.00
2022-10-06T03:07:19.267Z,100.00
2022-10-06T03:09:50.810Z,100.00
2022-10-06T03:12:23.449Z,100.00
2022-10-06T03:14:54.980Z,100.00
2022-10-06T03:17:26.805Z,100.00
2022-10-06T03:19:58.715Z,100.00
2022-10-06T03:22:30.541Z,100.00
2022-10-06T03:25:02.289Z,100.00
2022-10-06T03:27:34.364Z,100.00
2022-10-06T03:30:06.021Z,100.00
2022-10-06T03:32:38.391Z,100.00
2022-10-06T03:35:09.849Z,100.00
2022-10-06T03:37:41.753Z,100.00
2022-10-06T03:40:13.304Z,100.00
2022-10-06T03:42:45.212Z,100.00
2022-10-06T03:45:17.111Z,100.00
2022-10-06T03:47:48.571Z,100.00
2022-10-06T03:50:20.085Z,100.00
2022-10-06T03:52:52.436Z,100.00
2022-10-06T03:55:24.460Z,100.00
2022-10-06T03:57:57.272Z,100.00
2022-10-06T04:00:29.505Z,100.00
2022-10-06T04:03:02.497Z,100.00
2022-10-06T04:05:34.441Z,100.00
2022-10-06T04:08:06.185Z,100.00
2022-10-06T04:10:37.968Z,100.00
2022-10-06T04:13:09.437Z,100.00
2022-10-06T04:15:40.952Z,100.00
2022-10-06T04:18:12.428Z,100.00
2022-10-06T04:20:44.247Z,100.00
2022-10-06T04:23:16.259Z,100.00
2022-10-06T04:25:48.951Z,100.00
2022-10-06T04:28:21.965Z,99.09
2022-10-06T04:30:53.779Z,95.41
2022-10-06T04:33:25.256Z,91.50
2022-10-06T04:35:57.110Z,92.20
2022-10-06T04:38:29.751Z,90.22
2022-10-06T04:41:01.907Z,90.77
2022-10-06T04:43:33.368Z,89.73
2022-10-06T04:46:18.378Z,89.10
2022-10-06T04:48:56.712Z,89.30
2022-10-06T04:51:28.624Z,88.75
2022-10-06T04:54:01.080Z,89.01
2022-10-06T04:56:32.889Z,89.06
2022-10-06T04:59:04.390Z,89.21
2022-10-06T05:01:36.557Z,88.58
2022-10-06T05:04:08.167Z,88.62
2022-10-06T05:06:40.343Z,86.66
2022-10-06T05:09:11.851Z,86.87
2022-10-06T05:11:43.707Z,86.75
2022-10-06T05:14:15.187Z,87.25
2022-10-06T05:16:47.063Z,87.12
2022-10-06T05:19:18.545Z,87.78
2022-10-06T05:21:50.421Z,87.46
2022-10-06T05:24:22.621Z,86.23
2022-10-06T05:26:58.325Z,86.64
2022-10-06T05:29:32.444Z,86.29
2022-10-06T05:32:05.402Z,85.63
2022-10-06T05:34:36.959Z,86.68
2022-10-06T05:37:08.750Z,86.66
2022-10-06T05:39:40.270Z,85.37
2022-10-06T05:42:12.063Z,84.52
2022-10-06T05:44:43.545Z,84.99
2022-10-06T05:47:15.382Z,85.59
2022-10-06T05:49:46.840Z,85.10
2022-10-06T05:52:19.337Z,85.36
2022-10-06T05:54:50.817Z,84.78
2022-10-06T05:57:22.592Z,85.21
2022-10-06T05:59:54.088Z,84.93
2022-10-06T06:02:25.615Z,85.05
2022-10-06T06:04:57.103Z,85.23
2022-10-06T06:07:28.927Z,86.45
2022-10-06T06:10:00.410Z,86.88
2022-10-06T06:12:32.299Z,86.69
2022-10-06T06:15:22.589Z,86.80
2022-10-06T06:17:54.383Z,86.30
2022-10-06T06:20:25.845Z,85.69
2022-10-06T06:22:57.633Z,85.78
2022-10-06T06:25:29.129Z,84.53
2022-10-06T06:28:01.079Z,85.08
2022-10-06T06:30:32.605Z,83.91
2022-10-06T06:33:04.078Z,84.07
2022-10-06T06:35:35.827Z,83.40
2022-10-06T06:38:11.613Z,82.25
2022-10-06T06:40:43.382Z,82.32
2022-10-06T06:43:14.865Z,81.97
2022-10-06T06:45:46.722Z,81.64
2022-10-06T06:48:18.244Z,82.18
2022-10-06T06:50:50.074Z,82.46
2022-10-06T06:53:21.559Z,82.34
2022-10-06T06:55:53.487Z,82.00
2022-10-06T06:58:25.000Z,81.35
2022-10-06T07:00:56.823Z,83.67
2022-10-06T07:03:55.432Z,83.61
2022-10-06T07:06:24.590Z,84.16
2022-10-06T07:08:58.780Z,83.97
2022-10-06T07:11:30.488Z,85.25
2022-10-06T07:14:02.144Z,84.51
2022-10-06T07:16:52.544Z,84.31
2022-10-06T07:19:42.728Z,84.55
2022-10-06T07:22:32.905Z,84.09
2022-10-06T07:25:07.758Z,83.71
2022-10-06T07:27:42.073Z,83.40
2022-10-06T07:30:14.148Z,82.91
2022-10-06T07:32:45.696Z,80.22
2022-10-06T07:35:17.548Z,81.49
2022-10-06T07:37:49.016Z,81.93
2022-10-06T07:40:20.776Z,82.63
2022-10-06T07:42:52.520Z,81.83
2022-10-06T07:45:39.502Z,79.33
2022-10-06T07:48:11.178Z,78.55
2022-10-06T07:50:43.046Z,75.92
2022-10-06T07:53:14.565Z,75.35
2022-10-06T07:55:47.042Z,72.64
2022-10-06T07:58:18.578Z,70.84
2022-10-06T08:00:52.962Z,70.82
2022-10-06T08:03:25.227Z,70.07
2022-10-06T08:05:57.313Z,70.01
2022-10-06T08:08:28.877Z,70.65
2022-10-06T08:11:01.938Z,67.85
2022-10-06T08:13:33.575Z,69.05
2022-10-06T08:16:05.477Z,72.00
2022-10-06T08:18:52.313Z,70.06
2022-10-06T08:21:24.119Z,67.21
2022-10-06T08:23:55.839Z,65.73
2022-10-06T08:26:27.589Z,63.67
2022-10-06T08:29:03.026Z,64.91
2022-10-06T08:31:35.067Z,62.75
2022-10-06T08:34:11.775Z,60.25
2022-10-06T08:37:02.183Z,59.91
2022-10-06T08:39:35.835Z,58.37
2022-10-06T08:42:07.633Z,58.24
2022-10-06T08:44:39.087Z,58.36
2022-10-06T08:47:13.941Z,56.59
2022-10-06T08:49:46.005Z,56.46
2022-10-06T08:52:17.708Z,57.85
2022-10-06T08:54:49.258Z,55.99
2022-10-06T08:57:21.416Z,56.30
2022-10-06T08:59:53.897Z,57.71
2022-10-06T09:02:25.800Z,57.08
2022-10-06T09:04:58.341Z,57.50
2022-10-06T09:07:30.293Z,57.46
2022-10-06T09:10:02.134Z,58.09
2022-10-06T09:12:33.643Z,58.44
2022-10-06T09:15:05.765Z,57.99
2022-10-06T09:17:37.215Z,56.05
2022-10-06T09:20:09.904Z,56.90
2022-10-06T09:22:41.396Z,56.84
2022-10-06T09:25:13.383Z,55.00
2022-10-06T09:27:44.853Z,54.12
2022-10-06T09:30:16.639Z,52.90
2022-10-06T09:32:48.169Z,50.31
2022-10-06T09:35:20.208Z,52.28
2022-10-06T09:37:51.727Z,51.49
2022-10-06T09:40:23.201Z,51.27
2022-10-06T09:42:54.699Z,50.80
2022-10-06T09:45:26.950Z,50.78
2022-10-06T09:47:58.501Z,49.98
2022-10-06T09:50:30.295Z,52.29
2022-10-06T09:53:05.943Z,52.83
2022-10-06T09:55:37.787Z,54.26
2022-10-06T09:58:09.882Z,54.53
2022-10-06T10:00:41.758Z,53.01
2022-10-06T10:03:13.352Z,53.04
2022-10-06T10:05:44.980Z,53.08
2022-10-06T10:08:16.473Z,51.80
2022-10-06T10:10:48.265Z,49.81
2022-10-06T10:13:19.803Z,48.85
2022-10-06T10:15:53.947Z,48.95
2022-10-06T10:18:28.762Z,48.85
2022-10-06T10:21:00.751Z,48.41
2022-10-06T10:23:33.350Z,47.99
2022-10-06T10:26:05.223Z,49.69
2022-10-06T10:28:36.786Z,49.01
2022-10-06T10:31:08.449Z,47.00
2022-10-06T10:33:49.665Z,47.32
2022-10-06T10:36:31.333Z,47.38
2022-10-06T10:39:03.162Z,47.43
2022-10-06T10:41:34.914Z,46.68
2022-10-06T10:44:06.919Z,45.65
2022-10-06T10:46:38.414Z,45.73
2022-10-06T10:49:10.344Z,46.61
2022-10-06T10:51:41.992Z,46.56
2022-10-06T10:54:13.749Z,46.31
2022-10-06T10:56:45.238Z,46.62
2022-10-06T10:59:16.725Z,47.51
2022-10-06T11:01:48.278Z,47.47
2022-10-06T11:04:20.754Z,47.71
2022-10-06T11:06:54.283Z,47.17
2022-10-06T11:09:26.373Z,47.99
2022-10-06T11:11:57.871Z,46.15
2022-10-06T11:14:29.772Z,46.39
2022-10-06T11:17:01.338Z,46.30
2022-10-06T11:19:35.029Z,46.23
2022-10-06T11:22:06.543Z,45.23
2022-10-06T11:24:38.321Z,46.23
2022-10-06T11:27:09.799Z,48.31
2022-10-06T11:29:41.635Z,47.92
2022-10-06T11:32:13.184Z,49.00
2022-10-06T11:34:44.867Z,50.05
2022-10-06T11:37:16.390Z,49.61
2022-10-06T11:39:48.312Z,49.67
2022-10-06T11:42:19.846Z,48.79
2022-10-06T11:44:51.661Z,48.13
2022-10-06T11:47:35.185Z,48.20
2022-10-06T11:50:07.769Z,46.75
2022-10-06T11:52:39.252Z,47.63
2022-10-06T11:55:10.745Z,48.27
2022-10-06T11:57:42.237Z,48.31
2022-10-06T12:00:14.175Z,47.89
2022-10-06T12:02:45.812Z,48.97
2022-10-06T12:05:54.894Z,48.25
2022-10-06T12:08:11.973Z,47.64
2022-10-06T12:10:43.792Z,48.20
2022-10-06T12:13:50.489Z,48.30
2022-10-06T12:18:59.094Z,48.14
2022-10-06T12:21:30.822Z,47.40
2022-10-06T12:24:02.413Z,47.73
2022-10-06T12:26:34.441Z,48.61
2022-10-06T12:29:06.353Z,47.79
2022-10-06T12:31:38.262Z,48.18
2022-10-06T12:34:09.738Z,47.10
2022-10-06T12:36:45.012Z,47.96
2022-10-06T12:39:16.681Z,47.32
2022-10-06T12:41:48.633Z,47.39
2022-10-06T12:44:20.089Z,45.70
2022-10-06T12:46:51.923Z,46.40
2022-10-06T12:52:08.526Z,45.24
2022-10-06T12:54:40.399Z,45.09
2022-10-06T12:57:12.243Z,44.18
2022-10-06T12:59:43.797Z,44.37
2022-10-06T13:02:16.799Z,46.15
2022-10-06T13:04:49.611Z,45.42
2022-10-06T13:07:21.822Z,45.31
2022-10-06T13:09:53.697Z,44.91
2022-10-06T13:12:25.180Z,45.03
2022-10-06T13:14:57.541Z,45.11
2022-10-06T13:17:29.274Z,45.15
2022-10-06T13:20:01.555Z,45.28
2022-10-06T13:22:33.395Z,44.22
2022-10-06T13:25:05.256Z,44.07
2022-10-06T13:27:36.760Z,44.95
2022-10-06T13:30:08.601Z,44.91
2022-10-06T13:32:40.113Z,44.55
2022-10-06T13:35:11.979Z,44.29
2022-10-06T13:37:43.494Z,44.12
2022-10-06T13:40:21.943Z,44.45
2022-10-06T13:43:05.126Z,44.91
2022-10-06T13:45:37.104Z,44.79
2022-10-06T13:48:08.944Z,45.37
2022-10-06T13:50:42.064Z,44.55
2022-10-06T13:53:15.107Z,45.35
2022-10-06T13:55:46.893Z,44.58
2022-10-06T13:58:18.568Z,44.30
2022-10-06T14:00:50.583Z,44.10
2022-10-06T14:03:22.879Z,42.99
2022-10-06T14:05:54.753Z,43.14
2022-10-06T14:08:26.339Z,43.05
2022-10-06T14:10:58.171Z,42.46
2022-10-06T14:13:29.680Z,42.17
2022-10-06T14:16:02.106Z,42.57
2022-10-06T14:18:33.716Z,42.34
2022-10-06T14:21:05.711Z,41.92
2022-10-06T14:23:37.230Z,42.41
2022-10-06T14:26:09.062Z,42.34
2022-10-06T14:28:40.698Z,42.61
2022-10-06T14:31:14.727Z,42.77
2022-10-06T14:33:46.544Z,43.56
2022-10-06T14:36:18.530Z,42.37
2022-10-06T14:38:50.098Z,43.30
2022-10-06T14:41:24.856Z,43.12
2022-10-06T14:43:56.413Z,43.59
2022-10-06T14:46:28.387Z,43.67
2022-10-06T14:49:00.248Z,43.94
2022-10-06T14:51:36.578Z,43.92
2022-10-06T14:54:10.244Z,43.95
2022-10-06T14:56:42.225Z,43.79
2022-10-06T14:59:18.057Z,44.43
2022-10-06T15:01:50.328Z,44.42
2022-10-06T15:04:25.181Z,45.03
2022-10-06T15:07:15.751Z,46.79
2022-10-06T15:09:47.332Z,47.04
2022-10-06T15:12:19.213Z,47.57
2022-10-06T15:14:50.715Z,47.92
2022-10-06T15:17:24.820Z,48.69
2022-10-06T15:19:56.449Z,48.54
2022-10-06T15:22:29.397Z,48.70
2022-10-06T15:25:03.285Z,49.05
2022-10-06T15:27:53.675Z,49.76
2022-10-06T15:30:25.542Z,49.97
2022-10-06T15:32:57.051Z,50.24
2022-10-06T15:35:28.865Z,50.48
2022-10-06T15:38:00.392Z,50.26
2022-10-06T15:40:32.292Z,50.68
2022-10-06T15:43:04.249Z,51.26
2022-10-06T15:45:36.133Z,51.63
2022-10-06T15:48:07.646Z,51.83
2022-10-06T15:50:39.787Z,52.44
2022-10-06T15:53:11.292Z,52.17
2022-10-06T15:55:43.135Z,52.61
2022-10-06T15:58:15.393Z,52.87
2022-10-06T16:00:47.331Z,53.33
2022-10-06T16:03:38.717Z,53.79
2022-10-06T16:06:17.129Z,54.30
2022-10-06T16:08:48.634Z,54.64
2022-10-06T16:11:20.633Z,54.71
2022-10-06T16:13:52.126Z,55.32
2022-10-06T16:16:23.982Z,55.63
2022-10-06T16:18:55.588Z,56.13
2022-10-06T16:21:27.502Z,56.74
2022-10-06T16:23:59.062Z,57.21
2022-10-06T16:26:30.929Z,57.78
2022-10-06T16:29:02.513Z,58.70
2022-10-06T16:31:34.446Z,58.99
2022-10-06T16:34:06.136Z,59.80
2022-10-06T16:36:38.054Z,59.81
2022-10-06T16:39:09.592Z,60.80
2022-10-06T16:41:41.533Z,60.69
2022-10-06T16:44:13.175Z,61.80
2022-10-06T16:46:45.340Z,62.37
2022-10-06T16:49:16.960Z,62.18
2022-10-06T16:51:48.803Z,63.85
2022-10-06T16:54:20.898Z,65.06
2022-10-06T16:56:54.491Z,65.89
2022-10-06T16:59:26.534Z,66.04
2022-10-06T17:01:58.523Z,65.52
2022-10-06T17:04:30.147Z,65.20
2022-10-06T17:07:02.100Z,67.06
2022-10-06T17:09:33.627Z,67.27
2022-10-06T17:12:05.490Z,67.27
2022-10-06T17:14:36.990Z,69.54
2022-10-06T17:17:08.878Z,69.53
2022-10-06T17:19:40.388Z,70.33
2022-10-06T17:22:12.355Z,71.44
2022-10-06T17:24:43.932Z,71.87
2022-10-06T17:27:15.937Z,73.98
2022-10-06T17:29:47.446Z,73.13
2022-10-06T17:32:19.373Z,74.45
2022-10-06T17:34:54.005Z,73.29
2022-10-06T17:37:25.557Z,73.70
2022-10-06T17:39:57.043Z,75.07
2022-10-06T17:42:28.903Z,75.88
2022-10-06T17:45:00.544Z,74.85
2022-10-06T17:47:32.465Z,74.78
2022-10-06T17:50:04.054Z,74.73
2022-10-06T17:52:38.448Z,76.13
2022-10-06T17:55:10.589Z,76.99
2022-10-06T17:57:43.227Z,77.58
2022-10-06T18:00:17.759Z,77.72
2022-10-06T18:02:49.383Z,78.01
2022-10-06T18:05:21.006Z,77.40
2022-10-06T18:07:52.896Z,77.99
2022-10-06T18:10:43.670Z,77.94
2022-10-06T18:13:15.171Z,77.63
2022-10-06T18:15:51.001Z,79.29
2022-10-06T18:18:25.196Z,80.22
2022-10-06T18:20:57.765Z,78.50
2022-10-06T18:23:29.986Z,79.33
2022-10-06T18:26:02.049Z,79.99
2022-10-06T18:28:33.676Z,81.24
2022-10-06T18:31:05.561Z,81.62
2022-10-06T18:36:28.937Z,80.75
2022-10-06T18:39:01.209Z,80.48
2022-10-06T18:41:32.997Z,81.27
2022-10-06T18:44:04.814Z,83.94
2022-10-06T18:46:55.412Z,82.09
2022-10-06T18:49:26.915Z,82.36
2022-10-06T18:51:58.811Z,82.69
2022-10-06T18:54:30.465Z,83.16
2022-10-06T18:57:02.341Z,83.02
2022-10-06T18:59:35.187Z,82.89
2022-10-06T19:02:07.071Z,82.29
2022-10-06T19:04:42.673Z,84.22
2022-10-06T19:07:14.496Z,84.95
2022-10-06T19:09:46.985Z,85.57
2022-10-06T19:12:19.046Z,83.62
2022-10-06T19:14:51.251Z,84.58
2022-10-06T19:17:24.805Z,85.22
2022-10-06T19:19:57.025Z,85.83
2022-10-06T19:22:29.063Z,84.78
2022-10-06T19:25:01.083Z,84.73
2022-10-06T19:27:34.087Z,84.34
2022-10-06T19:30:05.641Z,85.08
2022-10-06T19:32:37.469Z,85.42
2022-10-06T19:35:10.617Z,86.18
2022-10-06T19:37:42.711Z,85.74
2022-10-06T19:40:14.480Z,85.43
2022-10-06T19:42:49.117Z,84.81
2022-10-06T19:45:21.070Z,85.91
2022-10-06T19:47:53.537Z,87.01
2022-10-06T19:50:25.207Z,86.87
2022-10-06T19:52:56.810Z,85.12
2022-10-06T19:55:28.573Z,87.65
2022-10-06T19:58:00.131Z,87.97
2022-10-06T20:00:31.714Z,87.98
2022-10-06T20:03:07.696Z,88.10
2022-10-06T20:05:39.489Z,87.38
2022-10-06T20:08:11.309Z,88.91
2022-10-06T20:10:42.831Z,89.80
2022-10-06T20:13:15.404Z,90.05
2022-10-06T20:15:47.683Z,89.65
2022-10-06T20:18:19.683Z,90.26
2022-10-06T20:20:51.188Z,90.29
2022-10-06T20:23:23.163Z,89.69
2022-10-06T20:25:54.649Z,89.44
2022-10-06T20:28:26.516Z,90.44
2022-10-06T20:30:58.733Z,89.57
2022-10-06T20:33:32.844Z,89.33
2022-10-06T20:36:04.439Z,89.19
2022-10-06T20:38:55.091Z,89.61
2022-10-06T20:41:27.191Z,89.82
2022-10-06T20:43:58.688Z,89.22
2022-10-06T20:46:31.333Z,90.03
2022-10-06T20:49:03.399Z,90.29
2022-10-06T20:51:35.370Z,91.41
2022-10-06T20:54:06.854Z,91.03
2022-10-06T20:56:38.677Z,92.82
2022-10-06T20:59:10.203Z,93.01
2022-10-06T21:01:42.127Z,93.18
2022-10-06T21:04:15.078Z,91.68
2022-10-06T21:06:47.180Z,91.42
2022-10-06T21:09:19.550Z,91.82
2022-10-06T21:11:51.470Z,91.96
2022-10-06T21:14:23.113Z,92.54
2022-10-06T21:16:55.038Z,93.13
2022-10-06T21:19:27.372Z,92.72
2022-10-06T21:22:00.234Z,93.83
2022-10-06T21:24:31.842Z,93.32
2022-10-06T21:27:03.938Z,93.32
2022-10-06T21:29:35.609Z,93.88
2022-10-06T21:32:09.648Z,94.05
2022-10-06T21:34:41.315Z,94.87
2022-10-06T21:37:13.662Z,95.23
2022-10-06T21:39:45.261Z,95.83
2022-10-06T21:42:17.273Z,96.46
2022-10-06T21:44:48.889Z,96.34
2022-10-06T21:47:21.093Z,96.91
2022-10-06T21:49:52.791Z,96.81
2022-10-06T21:52:24.755Z,97.80
2022-10-06T21:54:56.413Z,98.26
2022-10-06T21:57:28.347Z,97.80
2022-10-06T21:59:59.974Z,97.22
2022-10-06T22:02:32.075Z,99.44
2022-10-06T22:05:03.757Z,98.37
2022-10-06T22:07:35.799Z,97.97
2022-10-06T22:10:07.407Z,98.58
2022-10-06T22:12:39.316Z,98.69
2022-10-06T22:15:11.233Z,99.51
2022-10-06T22:17:43.357Z,98.73
2022-10-06T22:20:15.129Z,99.67
2022-10-06T22:22:47.159Z,99.71
2022-10-06T22:25:18.837Z,100.00
2022-10-06T22:27:50.766Z,100.00
2022-10-06T22:30:22.353Z,100.00
2022-10-06T22:32:55.116Z,100.00
2022-10-06T22:35:26.737Z,100.00
2022-10-06T22:37:58.638Z,100.00
2022-10-06T22:40:30.236Z,100.00
2022-10-06T22:43:02.214Z,100.00
2022-10-06T22:45:33.817Z,100.00
2022-10-06T22:48:05.770Z,100.00
2022-10-06T22:50:37.370Z,100.00
2022-10-06T22:53:09.310Z,100.00
2022-10-06T22:55:40.893Z,100.00
2022-10-06T22:58:12.805Z,100.00
2022-10-06T23:00:44.454Z,100.00
2022-10-06T23:03:16.144Z,100.00
2022-10-06T23:05:47.765Z,100.00
2022-10-06T23:08:19.680Z,100.00
2022-10-06T23:10:51.281Z,100.00
2022-10-06T23:13:22.894Z,100.00
2022-10-06T23:15:54.761Z,100.00
2022-10-06T23:18:26.400Z,100.00
2022-10-06T23:20:57.994Z,100.00
2022-10-06T23:23:29.955Z,100.00
2022-10-06T23:26:01.855Z,100.00
2022-10-06T23:28:33.584Z,100.00
2022-10-06T23:31:05.668Z,100.00
2022-10-06T23:33:37.369Z,100.00
2022-10-06T23:36:09.341Z,100.00
2022-10-06T23:38:42.281Z,100.00
2022-10-06T23:41:14.278Z,100.00
2022-10-06T23:43:45.896Z,100.00
2022-10-06T23:46:17.554Z,100.00
2022-10-06T23:48:49.219Z,100.00
2022-10-06T23:51:21.127Z,100.00
2022-10-06T23:53:52.722Z,100.00
2022-10-06T23:56:25.789Z,100.00
2022-10-06T23:58:57.377Z,100.00
